createdAt,value
2018-12-24T00:00:38.647Z,5.08
2018-12-24T00:03:06.710Z,5.08
2018-12-24T00:05:34.444Z,5.07
2018-12-24T00:08:02.446Z,5.07
2018-12-24T00:10:30.698Z,5.03
2018-12-24T00:12:59.149Z,4.99
2018-12-24T00:15:27.363Z,4.95
2018-12-24T00:17:56.237Z,4.96
2018-12-24T00:20:24.875Z,4.95
2018-12-24T00:22:53.039Z,4.92
2018-12-24T00:25:20.899Z,4.87
2018-12-24T00:27:49.617Z,4.82
2018-12-24T00:30:17.679Z,4.82
2018-12-24T00:32:45.710Z,4.85
2018-12-24T00:35:14.164Z,4.87
2018-12-24T00:37:42.076Z,4.88
2018-12-24T00:40:09.959Z,4.90
2018-12-24T00:42:38.418Z,4.90
2018-12-24T00:45:06.468Z,4.89
2018-12-24T00:47:34.388Z,4.87
2018-12-24T00:50:03.692Z,4.83
2018-12-24T00:52:31.895Z,4.81
2018-12-24T00:55:00.303Z,4.80
2018-12-24T00:57:28.909Z,4.80
2018-12-24T00:59:56.960Z,4.79
2018-12-24T01:02:24.847Z,4.79
2018-12-24T01:04:53.326Z,4.76
2018-12-24T01:07:21.411Z,4.77
2018-12-24T01:09:49.481Z,4.76
2018-12-24T01:12:24.520Z,4.73
2018-12-24T01:14:46.204Z,4.72
2018-12-24T01:17:14.210Z,4.70
2018-12-24T01:19:42.491Z,4.68
2018-12-24T01:22:10.433Z,4.65
2018-12-24T01:24:38.379Z,4.62
2018-12-24T01:27:06.633Z,4.39
2018-12-24T01:29:34.649Z,4.60
2018-12-24T01:32:03.355Z,4.59
2018-12-24T01:34:31.387Z,4.56
2018-12-24T01:37:00.595Z,4.51
2018-12-24T01:39:27.664Z,4.51
2018-12-24T01:41:55.956Z,3.69
2018-12-24T01:44:24.064Z,4.51
2018-12-24T01:46:52.051Z,4.48
2018-12-24T01:49:20.227Z,4.49
2018-12-24T01:51:48.304Z,4.47
2018-12-24T01:54:16.752Z,4.49
2018-12-24T01:56:44.847Z,4.50
2018-12-24T01:59:12.693Z,4.48
2018-12-24T02:01:40.811Z,4.51
2018-12-24T02:04:08.962Z,4.51
2018-12-24T02:06:36.928Z,4.42
2018-12-24T02:09:06.878Z,4.56
2018-12-24T02:11:34.904Z,4.57
2018-12-24T02:14:02.769Z,4.53
2018-12-24T02:16:30.655Z,4.53
2018-12-24T02:18:59.108Z,4.43
2018-12-24T02:21:26.967Z,4.45
2018-12-24T02:23:55.162Z,4.47
2018-12-24T02:26:23.319Z,4.33
2018-12-24T02:28:51.405Z,4.49
2018-12-24T02:31:19.276Z,4.47
2018-12-24T02:33:47.274Z,4.49
2018-12-24T02:36:15.207Z,4.51
2018-12-24T02:38:43.872Z,4.51
2018-12-24T02:41:12.130Z,4.49
2018-12-24T02:43:40.016Z,4.53
2018-12-24T02:46:08.439Z,4.52
2018-12-24T02:48:36.378Z,4.54
2018-12-24T02:51:04.423Z,4.52
2018-12-24T02:53:32.851Z,4.56
2018-12-24T02:56:00.839Z,4.57
2018-12-24T02:58:29.003Z,4.58
2018-12-24T03:00:57.268Z,4.61
2018-12-24T03:03:25.286Z,4.55
2018-12-24T03:05:53.263Z,4.53
2018-12-24T03:08:21.671Z,4.50
2018-12-24T03:10:49.970Z,4.51
2018-12-24T03:13:17.867Z,4.33
2018-12-24T03:15:46.385Z,4.45
2018-12-24T03:18:14.428Z,4.45
2018-12-24T03:20:42.326Z,4.42
2018-12-24T03:23:10.784Z,4.40
2018-12-24T03:25:38.928Z,4.42
2018-12-24T03:28:06.895Z,4.42
2018-12-24T03:30:35.400Z,4.40
2018-12-24T03:33:03.494Z,4.40
2018-12-24T03:35:31.549Z,4.40
2018-12-24T03:38:00.045Z,4.39
2018-12-24T03:40:28.211Z,4.42
2018-12-24T03:42:56.199Z,4.43
2018-12-24T03:45:24.764Z,4.43
2018-12-24T03:47:53.189Z,4.44
2018-12-24T03:50:21.541Z,4.43
2018-12-24T03:52:49.606Z,4.32
2018-12-24T03:55:17.918Z,4.07
2018-12-24T03:57:45.821Z,4.44
2018-12-24T04:00:14.662Z,4.44
2018-12-24T04:02:42.386Z,4.43
2018-12-24T04:05:10.217Z,4.39
2018-12-24T04:07:38.266Z,3.94
2018-12-24T04:10:06.396Z,4.12
2018-12-24T04:12:34.399Z,4.38
2018-12-24T04:15:02.714Z,3.54
2018-12-24T04:17:30.594Z,4.39
2018-12-24T04:19:58.881Z,4.39
2018-12-24T04:22:26.739Z,4.38
2018-12-24T04:24:54.569Z,4.35
2018-12-24T04:27:22.752Z,4.39
2018-12-24T04:29:51.362Z,4.39
2018-12-24T04:32:19.259Z,4.38
2018-12-24T04:34:47.164Z,4.38
2018-12-24T04:37:15.289Z,4.39
2018-12-24T04:39:43.282Z,2.76
2018-12-24T04:42:11.415Z,4.40
2018-12-24T04:44:40.232Z,4.37
2018-12-24T04:47:08.270Z,3.93
2018-12-24T04:49:36.528Z,4.41
2018-12-24T04:52:05.570Z,3.89
2018-12-24T04:54:33.724Z,4.36
2018-12-24T04:57:03.063Z,3.88
2018-12-24T04:59:31.443Z,4.36
2018-12-24T05:01:59.795Z,4.37
2018-12-24T05:04:28.172Z,3.89
2018-12-24T05:06:56.516Z,4.37
2018-12-24T05:09:24.507Z,4.40
2018-12-24T05:11:52.423Z,4.41
2018-12-24T05:14:37.364Z,4.33
2018-12-24T05:17:06.095Z,4.47
2018-12-24T05:19:36.394Z,4.48
2018-12-24T05:22:04.348Z,4.49
2018-12-24T05:24:32.904Z,4.50
2018-12-24T05:27:01.161Z,3.60
2018-12-24T05:29:29.192Z,3.70
2018-12-24T05:31:57.341Z,4.51
2018-12-24T05:34:25.860Z,4.37
2018-12-24T05:36:53.944Z,4.52
2018-12-24T05:39:21.996Z,4.52
2018-12-24T05:41:50.629Z,4.55
2018-12-24T05:44:19.729Z,4.56
2018-12-24T05:46:47.773Z,4.44
2018-12-24T05:49:15.718Z,4.47
2018-12-24T05:51:44.082Z,4.65
2018-12-24T05:54:12.331Z,4.65
2018-12-24T05:56:40.338Z,4.68
2018-12-24T05:59:09.111Z,4.70
2018-12-24T06:01:37.254Z,3.79
2018-12-24T06:04:05.191Z,4.75
2018-12-24T06:06:33.627Z,4.77
2018-12-24T06:09:03.248Z,4.82
2018-12-24T06:11:31.465Z,3.09
2018-12-24T06:13:59.613Z,4.85
2018-12-24T06:16:27.515Z,4.87
2018-12-24T06:18:55.291Z,4.46
2018-12-24T06:21:23.413Z,4.93
2018-12-24T06:23:51.113Z,4.93
2018-12-24T06:26:19.037Z,4.95
2018-12-24T06:28:47.674Z,4.98
2018-12-24T06:31:15.627Z,4.99
2018-12-24T06:33:43.561Z,5.01
2018-12-24T06:36:11.629Z,4.80
2018-12-24T06:38:39.541Z,3.19
2018-12-24T06:41:07.489Z,4.79
2018-12-24T06:43:35.503Z,5.04
2018-12-24T06:46:03.721Z,5.06
2018-12-24T06:48:31.501Z,5.08
2018-12-24T06:50:59.702Z,5.08
2018-12-24T06:53:27.459Z,5.10
2018-12-24T06:55:55.352Z,5.11
2018-12-24T06:58:23.543Z,5.14
2018-12-24T07:00:52.155Z,5.16
2018-12-24T07:03:20.660Z,4.50
2018-12-24T07:05:49.061Z,5.18
2018-12-24T07:08:17.248Z,5.20
2018-12-24T07:10:45.503Z,5.20
2018-12-24T07:13:13.723Z,5.21
2018-12-24T07:15:41.732Z,5.22
2018-12-24T07:18:09.465Z,5.21
2018-12-24T07:20:37.734Z,5.19
2018-12-24T07:23:06.725Z,5.17
2018-12-24T07:25:34.799Z,5.12
2018-12-24T07:30:36.586Z,5.10
2018-12-24T07:33:04.347Z,5.06
2018-12-24T07:35:32.771Z,5.07
2018-12-24T07:38:00.658Z,5.06
2018-12-24T07:40:29.490Z,4.98
2018-12-24T07:42:57.744Z,3.55
2018-12-24T07:45:25.972Z,3.74
2018-12-24T07:47:53.889Z,4.94
2018-12-24T07:50:22.399Z,4.94
2018-12-24T07:52:50.327Z,4.92
2018-12-24T07:55:18.825Z,4.90
2018-12-24T07:57:47.339Z,4.93
2018-12-24T08:00:15.052Z,4.93
2018-12-24T08:02:43.321Z,4.93
2018-12-24T08:05:11.335Z,4.92
2018-12-24T08:07:39.281Z,4.92
2018-12-24T08:10:07.835Z,3.64
2018-12-24T08:12:37.535Z,4.93
2018-12-24T08:15:05.579Z,4.93
2018-12-24T08:17:34.224Z,4.95
2018-12-24T08:20:03.108Z,3.59
2018-12-24T08:22:31.183Z,4.85
2018-12-24T08:24:59.418Z,5.01
2018-12-24T08:27:27.843Z,3.98
2018-12-24T08:29:55.762Z,4.97
2018-12-24T08:32:23.497Z,4.93
2018-12-24T08:34:52.367Z,3.96
2018-12-24T08:37:20.642Z,4.87
2018-12-24T08:39:48.669Z,4.86
2018-12-24T08:42:18.030Z,4.86
2018-12-24T08:44:48.159Z,4.85
2018-12-24T08:47:15.847Z,4.83
2018-12-24T08:49:44.020Z,4.82
2018-12-24T08:52:11.828Z,4.82
2018-12-24T08:54:39.935Z,4.79
2018-12-24T08:57:08.107Z,3.27
2018-12-24T08:59:35.855Z,3.58
2018-12-24T09:02:03.849Z,4.55
2018-12-24T09:04:32.278Z,4.51
2018-12-24T09:07:00.496Z,4.47
2018-12-24T09:09:29.357Z,4.42
2018-12-24T09:11:58.261Z,4.38
2018-12-24T09:14:27.008Z,4.34
2018-12-24T09:16:54.993Z,4.33
2018-12-24T09:19:23.539Z,4.33
2018-12-24T09:21:51.610Z,4.35
2018-12-24T09:24:20.039Z,4.33
2018-12-24T09:26:48.843Z,3.97
2018-12-24T09:29:16.890Z,4.27
2018-12-24T09:31:46.840Z,4.27
2018-12-24T09:34:14.676Z,4.27
2018-12-24T09:36:42.471Z,4.25
2018-12-24T09:39:11.958Z,4.25
2018-12-24T09:41:40.207Z,4.26
2018-12-24T09:44:07.929Z,3.77
2018-12-24T09:46:37.730Z,4.28
2018-12-24T09:49:05.459Z,4.27
2018-12-24T09:51:33.570Z,4.27
2018-12-24T09:54:04.483Z,4.27
2018-12-24T09:56:33.995Z,4.24
2018-12-24T09:59:01.845Z,4.24
2018-12-24T10:01:29.943Z,4.25
2018-12-24T10:04:03.006Z,4.31
2018-12-24T10:06:34.364Z,4.32
2018-12-24T10:09:06.582Z,4.31
2018-12-24T10:11:38.645Z,4.21
2018-12-24T10:14:07.095Z,4.36
2018-12-24T10:16:35.316Z,4.39
2018-12-24T10:19:03.339Z,4.41
2018-12-24T10:21:31.543Z,2.75
2018-12-24T10:23:59.400Z,4.45
2018-12-24T10:26:27.741Z,4.47
2018-12-24T10:28:55.567Z,4.15
2018-12-24T10:31:23.524Z,4.55
2018-12-24T10:33:51.523Z,4.37
2018-12-24T10:36:19.493Z,4.66
2018-12-24T10:38:47.309Z,4.73
2018-12-24T10:41:20.370Z,4.01
2018-12-24T10:43:51.418Z,4.83
2018-12-24T10:46:19.205Z,4.39
2018-12-24T10:48:47.342Z,4.91
2018-12-24T10:51:15.607Z,5.01
2018-12-24T10:53:43.641Z,5.09
2018-12-24T10:56:12.133Z,5.17
2018-12-24T10:58:40.139Z,5.22
2018-12-24T11:01:08.123Z,5.22
2018-12-24T11:03:37.042Z,4.95
2018-12-24T11:06:05.199Z,5.22
2018-12-24T11:08:33.172Z,5.15
2018-12-24T11:11:02.222Z,5.11
2018-12-24T11:13:30.376Z,5.18
2018-12-24T11:15:58.413Z,5.28
2018-12-24T11:18:26.701Z,4.92
2018-12-24T11:20:55.684Z,4.29
2018-12-24T11:23:23.733Z,5.48
2018-12-24T11:25:52.347Z,5.45
2018-12-24T11:28:20.287Z,5.42
2018-12-24T11:30:48.342Z,5.39
2018-12-24T11:33:17.535Z,5.37
2018-12-24T11:35:45.371Z,5.36
2018-12-24T11:38:13.387Z,5.32
2018-12-24T11:40:41.536Z,5.30
2018-12-24T11:43:09.255Z,5.29
2018-12-24T11:45:38.097Z,5.30
2018-12-24T11:48:06.159Z,5.27
2018-12-24T11:50:38.353Z,5.23
2018-12-24T11:53:06.588Z,5.16
2018-12-24T11:55:34.813Z,5.13
2018-12-24T11:58:13.446Z,5.13
2018-12-24T12:00:36.172Z,5.10
2018-12-24T12:03:04.410Z,3.13
2018-12-24T12:05:32.192Z,5.04
2018-12-24T12:08:00.345Z,5.02
2018-12-24T12:10:28.095Z,5.02
2018-12-24T12:12:55.884Z,5.01
2018-12-24T12:15:23.640Z,3.62
2018-12-24T12:17:52.249Z,4.97
2018-12-24T12:20:22.850Z,3.64
2018-12-24T12:22:49.429Z,4.87
2018-12-24T12:25:17.475Z,4.57
2018-12-24T12:27:45.360Z,4.64
2018-12-24T12:30:15.359Z,4.49
2018-12-24T12:32:44.251Z,4.68
2018-12-24T12:35:12.080Z,4.61
2018-12-24T12:37:40.606Z,4.47
2018-12-24T12:40:09.067Z,4.61
2018-12-24T12:42:37.581Z,4.64
2018-12-24T12:45:06.379Z,4.69
2018-12-24T12:47:34.762Z,4.77
2018-12-24T12:50:02.695Z,4.82
2018-12-24T12:52:31.390Z,4.87
2018-12-24T12:54:59.202Z,4.93
2018-12-24T12:57:29.138Z,4.90
2018-12-24T12:59:57.685Z,4.72
2018-12-24T13:02:25.665Z,4.75
2018-12-24T13:04:53.763Z,4.66
2018-12-24T13:07:24.537Z,4.57
2018-12-24T13:09:53.594Z,4.51
2018-12-24T13:12:21.808Z,4.43
2018-12-24T13:14:52.585Z,4.39
2018-12-24T13:17:23.415Z,4.37
2018-12-24T13:19:51.591Z,4.32
2018-12-24T13:22:22.923Z,4.27
2018-12-24T13:24:52.828Z,4.22
2018-12-24T13:27:21.681Z,4.18
2018-12-24T13:29:50.821Z,4.12
2018-12-24T13:32:19.058Z,4.10
2018-12-24T13:34:51.274Z,3.11
2018-12-24T13:37:20.461Z,3.31
2018-12-24T13:39:48.820Z,4.01
2018-12-24T13:42:17.474Z,3.96
2018-12-24T13:44:48.615Z,3.93
2018-12-24T13:47:17.713Z,2.41
2018-12-24T13:49:46.638Z,3.84
2018-12-24T13:52:15.607Z,3.67
2018-12-24T13:54:43.795Z,3.76
2018-12-24T13:57:15.679Z,3.75
2018-12-24T13:59:45.884Z,3.74
2018-12-24T14:02:16.562Z,3.71
2018-12-24T14:04:43.615Z,3.25
2018-12-24T14:07:13.665Z,3.36
2018-12-24T14:09:42.015Z,3.72
2018-12-24T14:12:10.062Z,3.74
2018-12-24T14:14:39.424Z,3.39
2018-12-24T14:17:10.039Z,3.76
2018-12-24T14:19:39.463Z,3.74
2018-12-24T14:22:08.507Z,3.76
2018-12-24T14:24:39.663Z,3.73
2018-12-24T14:27:08.817Z,3.67
2018-12-24T14:29:41.475Z,3.64
2018-12-24T14:32:10.139Z,3.60
2018-12-24T14:34:39.962Z,3.60
2018-12-24T14:37:07.775Z,3.59
2018-12-24T14:39:37.568Z,2.49
2018-12-24T14:42:12.654Z,3.54
2018-12-24T14:44:44.314Z,3.54
2018-12-24T14:47:13.222Z,3.49
2018-12-24T14:49:41.551Z,3.45
2018-12-24T14:52:10.263Z,3.37
2018-12-24T14:54:43.893Z,2.47
2018-12-24T14:57:12.049Z,2.35
2018-12-24T14:59:41.460Z,3.29
2018-12-24T15:02:10.112Z,3.24
2018-12-24T15:04:39.178Z,3.17
2018-12-24T15:07:13.755Z,3.14
2018-12-24T15:09:42.421Z,3.08
2018-12-24T15:12:15.447Z,2.19
2018-12-24T15:14:44.601Z,3.00
2018-12-24T15:17:12.403Z,2.97
2018-12-24T15:19:40.439Z,2.94
2018-12-24T15:22:12.246Z,2.93
2018-12-24T15:24:41.429Z,2.92
2018-12-24T15:27:11.294Z,2.89
2018-12-24T15:29:41.163Z,2.34
2018-12-24T15:32:08.890Z,2.80
2018-12-24T15:34:37.200Z,2.75
2018-12-24T15:37:05.488Z,2.73
2018-12-24T15:39:33.291Z,2.59
2018-12-24T15:42:02.214Z,2.74
2018-12-24T15:44:32.716Z,2.75
2018-12-24T15:47:03.240Z,2.73
2018-12-24T15:49:31.910Z,2.73
2018-12-24T15:52:00.511Z,2.74
2018-12-24T15:54:30.752Z,2.75
2018-12-24T15:56:59.155Z,2.76
2018-12-24T15:59:27.881Z,2.74
2018-12-24T16:01:56.436Z,2.67
2018-12-24T16:04:26.330Z,2.07
2018-12-24T16:06:56.967Z,1.54
2018-12-24T16:09:24.737Z,2.63
2018-12-24T16:11:53.925Z,1.82
2018-12-24T16:14:23.519Z,2.63
2018-12-24T16:16:51.654Z,2.63
2018-12-24T16:19:20.285Z,2.58
2018-12-24T16:21:49.071Z,2.56
2018-12-24T16:24:17.373Z,2.40
2018-12-24T16:26:45.591Z,2.50
2018-12-24T16:29:13.812Z,2.48
2018-12-24T16:31:41.619Z,2.47
2018-12-24T16:34:09.312Z,2.46
2018-12-24T16:36:38.242Z,2.46
2018-12-24T16:39:06.787Z,2.44
2018-12-24T16:41:34.801Z,2.43
2018-12-24T16:44:03.050Z,2.43
2018-12-24T16:46:32.275Z,2.42
2018-12-24T16:49:00.031Z,2.35
2018-12-24T16:51:30.101Z,0.52
2018-12-24T16:53:58.515Z,2.25
2018-12-24T16:56:27.146Z,2.19
2018-12-24T16:58:55.518Z,0.41
2018-12-24T17:01:23.979Z,2.15
2018-12-24T17:03:51.762Z,2.11
2018-12-24T17:06:19.566Z,2.10
2018-12-24T17:08:48.290Z,2.09
2018-12-24T17:11:16.858Z,2.07
2018-12-24T17:13:44.932Z,2.02
2018-12-24T17:16:14.912Z,2.01
2018-12-24T17:18:42.909Z,1.98
2018-12-24T17:21:11.383Z,0.42
2018-12-24T17:23:40.100Z,1.94
2018-12-24T17:26:10.228Z,0.66
2018-12-24T17:28:38.770Z,1.90
2018-12-24T17:31:06.547Z,1.89
2018-12-24T17:33:35.420Z,-0.22
2018-12-24T17:36:06.942Z,-0.35
2018-12-24T17:38:34.778Z,1.85
2018-12-24T17:41:11.945Z,1.83
2018-12-24T17:43:47.127Z,-0.52
2018-12-24T17:46:16.716Z,1.75
2018-12-24T17:48:50.272Z,1.71
2018-12-24T17:51:20.770Z,-0.57
2018-12-24T17:53:49.435Z,1.66
2018-12-24T17:56:17.271Z,1.65
2018-12-24T17:58:46.632Z,1.67
2018-12-24T18:01:14.918Z,1.68
2018-12-24T18:03:42.698Z,1.68
2018-12-24T18:24:37.474Z,1.73
2018-12-24T18:27:05.886Z,1.88
2018-12-24T18:29:35.422Z,-0.01
2018-12-24T18:32:03.424Z,1.91
2018-12-24T18:34:31.278Z,1.94
2018-12-24T18:36:59.352Z,1.98
2018-12-24T18:39:28.314Z,2.01
2018-12-24T18:41:56.777Z,2.05
2018-12-24T18:44:24.653Z,2.08
2018-12-24T18:47:01.662Z,1.97
2018-12-24T18:49:31.462Z,2.11
2018-12-24T18:52:00.687Z,2.13
2018-12-24T18:54:32.296Z,1.91
2018-12-24T18:57:03.680Z,1.91
2018-12-24T18:59:37.656Z,2.02
2018-12-24T19:02:08.689Z,2.16
2018-12-24T19:04:41.800Z,2.18
2018-12-24T19:07:10.108Z,2.18
2018-12-24T19:09:39.266Z,2.15
2018-12-24T19:12:14.535Z,2.16
2018-12-24T19:14:43.009Z,2.13
2018-12-24T19:17:25.375Z,1.97
2018-12-24T19:19:56.283Z,2.07
2018-12-24T19:22:27.036Z,2.07
2018-12-24T19:24:56.969Z,2.07
2018-12-24T19:27:30.302Z,2.06
2018-12-24T19:30:00.648Z,1.80
2018-12-24T19:32:28.532Z,2.03
2018-12-24T19:34:59.768Z,2.01
2018-12-24T19:37:31.463Z,1.61
2018-12-24T19:40:02.009Z,1.97
2018-12-24T19:42:33.922Z,1.94
2018-12-24T19:45:08.562Z,1.92
2018-12-24T19:47:36.934Z,1.89
2018-12-24T19:50:07.208Z,1.88
2018-12-24T19:52:35.381Z,1.86
2018-12-24T19:55:08.173Z,1.87
2018-12-24T19:57:36.409Z,1.27
2018-12-24T20:00:06.860Z,1.89
2018-12-24T20:02:34.864Z,1.93
2018-12-24T20:05:05.311Z,1.95
2018-12-24T20:07:36.572Z,1.61
2018-12-24T20:10:07.887Z,1.70
2018-12-24T20:12:38.625Z,1.99
2018-12-24T20:15:11.473Z,1.98
2018-12-24T20:17:41.792Z,1.62
2018-12-24T20:20:12.638Z,1.73
2018-12-24T20:22:41.174Z,1.85
2018-12-24T20:25:09.529Z,1.83
2018-12-24T20:27:39.241Z,1.83
2018-12-24T20:30:08.122Z,1.97
2018-12-24T20:32:41.548Z,1.51
2018-12-24T20:35:09.961Z,2.00
2018-12-24T20:37:38.682Z,1.77
2018-12-24T20:40:08.023Z,1.88
2018-12-24T20:42:38.861Z,2.02
2018-12-24T20:45:08.347Z,1.77
2018-12-24T20:47:37.253Z,1.92
2018-12-24T20:50:09.625Z,1.80
2018-12-24T20:52:40.100Z,0.62
2018-12-24T20:55:09.207Z,2.09
2018-12-24T20:57:39.550Z,2.09
2018-12-24T21:00:08.821Z,2.10
2018-12-24T21:02:39.990Z,-0.29
2018-12-24T21:05:09.281Z,2.09
2018-12-24T21:07:38.931Z,2.11
2018-12-24T21:10:07.326Z,1.98
2018-12-24T21:12:38.949Z,2.13
2018-12-24T21:15:09.122Z,2.13
2018-12-24T21:17:41.293Z,1.38
2018-12-24T21:20:11.297Z,2.16
2018-12-24T21:22:39.403Z,2.18
2018-12-24T21:25:16.359Z,2.20
2018-12-24T21:27:46.682Z,2.24
2018-12-24T21:30:19.100Z,2.25
2018-12-24T21:32:50.446Z,2.28
2018-12-24T21:35:19.751Z,1.91
2018-12-24T21:37:52.285Z,2.28
2018-12-24T21:40:22.223Z,2.30
2018-12-24T21:42:58.235Z,2.30
2018-12-24T21:45:27.014Z,2.19
2018-12-24T21:47:54.935Z,2.32
2018-12-24T21:50:23.581Z,2.34
2018-12-24T21:52:51.819Z,2.35
2018-12-24T21:55:23.994Z,2.36
2018-12-24T21:57:52.680Z,2.35
2018-12-24T22:00:25.117Z,2.36
2018-12-24T22:02:53.028Z,2.39
2018-12-24T22:05:22.596Z,2.27
2018-12-24T22:07:50.526Z,1.27
2018-12-24T22:10:19.467Z,2.14
2018-12-24T22:12:48.092Z,2.40
2018-12-24T22:15:17.223Z,2.01
2018-12-24T22:17:46.231Z,2.40
2018-12-24T22:20:13.991Z,2.41
2018-12-24T22:22:43.903Z,2.44
2018-12-24T22:25:12.640Z,2.46
2018-12-24T22:27:41.204Z,2.47
2018-12-24T22:30:12.112Z,2.49
2018-12-24T22:32:43.969Z,2.50
2018-12-24T22:35:15.951Z,2.52
2018-12-24T22:37:50.338Z,2.51
2018-12-24T22:40:21.148Z,2.53
2018-12-24T22:42:49.536Z,2.54
2018-12-24T22:45:19.850Z,2.55
2018-12-24T22:47:48.562Z,2.54
2018-12-24T22:50:17.263Z,2.56
2018-12-24T22:52:45.214Z,2.57
2018-12-24T22:55:14.657Z,2.55
2018-12-24T22:57:44.497Z,2.39
2018-12-24T23:00:14.664Z,2.47
2018-12-24T23:02:46.253Z,2.47
2018-12-24T23:05:15.677Z,2.08
2018-12-24T23:07:47.740Z,2.41
2018-12-24T23:10:18.456Z,2.17
2018-12-24T23:12:46.152Z,2.37
2018-12-24T23:15:15.763Z,2.35
2018-12-24T23:17:45.035Z,2.34
2018-12-24T23:20:12.939Z,2.31
2018-12-24T23:22:41.580Z,2.28
2018-12-24T23:25:11.852Z,2.23
2018-12-24T23:27:40.088Z,2.21
2018-12-24T23:30:10.051Z,2.19
2018-12-24T23:35:12.690Z,2.15
2018-12-24T23:37:41.522Z,2.14
2018-12-24T23:40:10.092Z,2.13
2018-12-24T23:42:38.568Z,2.13
2018-12-24T23:45:09.770Z,2.15
2018-12-24T23:47:38.855Z,1.42
2018-12-24T23:50:07.117Z,2.19
2018-12-24T23:52:35.089Z,1.27
2018-12-24T23:55:04.163Z,2.22
2018-12-24T23:57:35.075Z,2.20
